sensor_id;sensor_type;location;lat;lon;timestamp;P1;durP1;ratioP1;P2;durP2;ratioP2
69260;SDS011;56378;52.404;20.816;2023-04-06T00:00:50;13.57;;;4.05;;
69260;SDS011;56378;52.404;20.816;2023-04-06T00:03:16;10.70;;;3.60;;
69260;SDS011;56378;52.404;20.816;2023-04-06T00:05:42;12.93;;;3.60;;
69260;SDS011;56378;52.404;20.816;2023-04-06T00:08:08;14.25;;;4.65;;
69260;SDS011;56378;52.404;20.816;2023-04-06T00:10:33;12.23;;;4.70;;
69260;SDS011;56378;52.404;20.816;2023-04-06T00:13:00;12.98;;;4.82;;
69260;SDS011;56378;52.404;20.816;2023-04-06T00:15:26;11.77;;;4.17;;
69260;SDS011;56378;52.404;20.816;2023-04-06T00:17:52;13.30;;;4.38;;
69260;SDS011;56378;52.404;20.816;2023-04-06T00:20:17;11.27;;;4.40;;
69260;SDS011;56378;52.404;20.816;2023-04-06T00:22:44;11.65;;;3.90;;
69260;SDS011;56378;52.404;20.816;2023-04-06T00:25:10;9.03;;;3.40;;
69260;SDS011;56378;52.404;20.816;2023-04-06T00:27:37;12.15;;;4.10;;
69260;SDS011;56378;52.404;20.816;2023-04-06T00:30:06;11.90;;;4.50;;
69260;SDS011;56378;52.404;20.816;2023-04-06T00:32:32;11.68;;;3.90;;
69260;SDS011;56378;52.404;20.816;2023-04-06T00:34:59;10.43;;;4.00;;
69260;SDS011;56378;52.404;20.816;2023-04-06T00:37:24;12.53;;;4.27;;
69260;SDS011;56378;52.404;20.816;2023-04-06T00:39:50;15.30;;;4.20;;
69260;SDS011;56378;52.404;20.816;2023-04-06T00:42:18;9.30;;;3.67;;
69260;SDS011;56378;52.404;20.816;2023-04-06T00:44:58;10.55;;;3.55;;
69260;SDS011;56378;52.404;20.816;2023-04-06T00:47:24;11.48;;;4.20;;
69260;SDS011;56378;52.404;20.816;2023-04-06T00:49:51;12.45;;;3.67;;
69260;SDS011;56378;52.404;20.816;2023-04-06T00:52:17;10.90;;;4.00;;
69260;SDS011;56378;52.404;20.816;2023-04-06T00:54:43;9.40;;;3.80;;
69260;SDS011;56378;52.404;20.816;2023-04-06T00:57:10;10.60;;;3.88;;
69260;SDS011;56378;52.404;20.816;2023-04-06T00:59:37;11.80;;;4.15;;
69260;SDS011;56378;52.404;20.816;2023-04-06T01:02:03;11.98;;;4.20;;
69260;SDS011;56378;52.404;20.816;2023-04-06T01:04:28;12.07;;;3.90;;
69260;SDS011;56378;52.404;20.816;2023-04-06T01:06:54;12.57;;;3.85;;
69260;SDS011;56378;52.404;20.816;2023-04-06T01:09:20;11.80;;;3.70;;
69260;SDS011;56378;52.404;20.816;2023-04-06T01:11:47;10.45;;;3.70;;
69260;SDS011;56378;52.404;20.816;2023-04-06T01:14:12;11.77;;;3.80;;
69260;SDS011;56378;52.404;20.816;2023-04-06T01:16:39;8.80;;;3.57;;
69260;SDS011;56378;52.404;20.816;2023-04-06T01:19:09;11.35;;;4.40;;
69260;SDS011;56378;52.404;20.816;2023-04-06T01:21:38;9.65;;;3.65;;
69260;SDS011;56378;52.404;20.816;2023-04-06T01:24:04;12.07;;;3.97;;
69260;SDS011;56378;52.404;20.816;2023-04-06T01:26:31;10.77;;;4.18;;
69260;SDS011;56378;52.404;20.816;2023-04-06T01:28:57;10.20;;;3.77;;
69260;SDS011;56378;52.404;20.816;2023-04-06T01:31:23;10.82;;;4.00;;
69260;SDS011;56378;52.404;20.816;2023-04-06T01:33:49;11.30;;;3.85;;
69260;SDS011;56378;52.404;20.816;2023-04-06T01:36:15;11.75;;;4.40;;
69260;SDS011;56378;52.404;20.816;2023-04-06T01:38:41;11.35;;;4.25;;
69260;SDS011;56378;52.404;20.816;2023-04-06T01:41:07;11.82;;;4.20;;
69260;SDS011;56378;52.404;20.816;2023-04-06T01:43:34;14.05;;;4.70;;
69260;SDS011;56378;52.404;20.816;2023-04-06T01:45:59;12.40;;;4.45;;
69260;SDS011;56378;52.404;20.816;2023-04-06T01:48:26;14.48;;;5.40;;
69260;SDS011;56378;52.404;20.816;2023-04-06T01:50:52;15.02;;;4.72;;
69260;SDS011;56378;52.404;20.816;2023-04-06T01:53:18;14.87;;;4.50;;
69260;SDS011;56378;52.404;20.816;2023-04-06T01:55:43;14.27;;;4.35;;
69260;SDS011;56378;52.404;20.816;2023-04-06T01:58:09;9.93;;;4.00;;
69260;SDS011;56378;52.404;20.816;2023-04-06T02:00:35;9.70;;;3.72;;
69260;SDS011;56378;52.404;20.816;2023-04-06T02:03:01;14.00;;;4.25;;
69260;SDS011;56378;52.404;20.816;2023-04-06T02:05:27;11.23;;;3.83;;
69260;SDS011;56378;52.404;20.816;2023-04-06T02:07:54;9.40;;;3.90;;
69260;SDS011;56378;52.404;20.816;2023-04-06T02:10:20;10.67;;;4.00;;
69260;SDS011;56378;52.404;20.816;2023-04-06T02:12:46;7.60;;;3.22;;
69260;SDS011;56378;52.404;20.816;2023-04-06T02:15:11;10.47;;;4.03;;
69260;SDS011;56378;52.404;20.816;2023-04-06T02:17:38;9.30;;;3.58;;
69260;SDS011;56378;52.404;20.816;2023-04-06T02:20:05;13.30;;;3.70;;
69260;SDS011;56378;52.404;20.816;2023-04-06T02:22:31;9.32;;;3.10;;
69260;SDS011;56378;52.404;20.816;2023-04-06T02:24:57;10.47;;;3.60;;
69260;SDS011;56378;52.404;20.816;2023-04-06T02:27:23;10.98;;;3.47;;
69260;SDS011;56378;52.404;20.816;2023-04-06T02:29:48;12.33;;;3.80;;
69260;SDS011;56378;52.404;20.816;2023-04-06T02:32:14;10.40;;;3.88;;
69260;SDS011;56378;52.404;20.816;2023-04-06T02:34:40;9.60;;;3.73;;
69260;SDS011;56378;52.404;20.816;2023-04-06T02:37:05;11.57;;;3.78;;
69260;SDS011;56378;52.404;20.816;2023-04-06T02:39:31;9.73;;;3.87;;
69260;SDS011;56378;52.404;20.816;2023-04-06T02:41:57;11.73;;;3.53;;
69260;SDS011;56378;52.404;20.816;2023-04-06T02:44:22;10.85;;;3.92;;
69260;SDS011;56378;52.404;20.816;2023-04-06T02:46:48;10.43;;;3.93;;
69260;SDS011;56378;52.404;20.816;2023-04-06T02:49:14;10.48;;;4.07;;
69260;SDS011;56378;52.404;20.816;2023-04-06T02:51:40;10.55;;;4.07;;
69260;SDS011;56378;52.404;20.816;2023-04-06T02:54:06;9.07;;;3.60;;
69260;SDS011;56378;52.404;20.816;2023-04-06T02:56:32;11.15;;;4.35;;
69260;SDS011;56378;52.404;20.816;2023-04-06T02:58:58;10.00;;;3.73;;
69260;SDS011;56378;52.404;20.816;2023-04-06T03:01:23;11.80;;;3.83;;
69260;SDS011;56378;52.404;20.816;2023-04-06T03:03:49;10.37;;;3.80;;
69260;SDS011;56378;52.404;20.816;2023-04-06T03:06:15;12.75;;;4.25;;
69260;SDS011;56378;52.404;20.816;2023-04-06T03:08:40;11.70;;;4.17;;
69260;SDS011;56378;52.404;20.816;2023-04-06T03:11:06;11.88;;;4.30;;
69260;SDS011;56378;52.404;20.816;2023-04-06T03:13:32;12.23;;;4.53;;
69260;SDS011;56378;52.404;20.816;2023-04-06T03:15:58;12.50;;;4.38;;
69260;SDS011;56378;52.404;20.816;2023-04-06T03:18:24;12.07;;;4.60;;
69260;SDS011;56378;52.404;20.816;2023-04-06T03:20:50;10.70;;;4.70;;
69260;SDS011;56378;52.404;20.816;2023-04-06T03:23:18;10.32;;;4.47;;
69260;SDS011;56378;52.404;20.816;2023-04-06T03:25:46;12.10;;;4.40;;
69260;SDS011;56378;52.404;20.816;2023-04-06T03:28:11;11.00;;;4.33;;
69260;SDS011;56378;52.404;20.816;2023-04-06T03:30:37;11.88;;;4.35;;
69260;SDS011;56378;52.404;20.816;2023-04-06T03:33:03;12.73;;;5.00;;
69260;SDS011;56378;52.404;20.816;2023-04-06T03:35:29;11.63;;;4.30;;
69260;SDS011;56378;52.404;20.816;2023-04-06T03:37:55;11.73;;;4.50;;
69260;SDS011;56378;52.404;20.816;2023-04-06T03:40:20;10.30;;;4.35;;
69260;SDS011;56378;52.404;20.816;2023-04-06T03:42:46;12.90;;;4.50;;
69260;SDS011;56378;52.404;20.816;2023-04-06T03:45:12;14.30;;;4.90;;
69260;SDS011;56378;52.404;20.816;2023-04-06T03:47:38;13.25;;;4.93;;
69260;SDS011;56378;52.404;20.816;2023-04-06T03:50:05;11.20;;;4.30;;
69260;SDS011;56378;52.404;20.816;2023-04-06T03:52:31;10.85;;;4.57;;
69260;SDS011;56378;52.404;20.816;2023-04-06T03:54:57;11.07;;;4.60;;
69260;SDS011;56378;52.404;20.816;2023-04-06T03:57:22;12.47;;;4.40;;
69260;SDS011;56378;52.404;20.816;2023-04-06T03:59:48;12.98;;;4.47;;
69260;SDS011;56378;52.404;20.816;2023-04-06T04:02:14;11.55;;;4.68;;
69260;SDS011;56378;52.404;20.816;2023-04-06T04:04:40;15.03;;;5.30;;
69260;SDS011;56378;52.404;20.816;2023-04-06T04:07:05;13.52;;;4.25;;
69260;SDS011;56378;52.404;20.816;2023-04-06T04:09:31;11.40;;;5.00;;
69260;SDS011;56378;52.404;20.816;2023-04-06T04:11:57;12.65;;;5.20;;
69260;SDS011;56378;52.404;20.816;2023-04-06T04:14:22;12.98;;;4.60;;
69260;SDS011;56378;52.404;20.816;2023-04-06T04:16:48;12.40;;;4.57;;
69260;SDS011;56378;52.404;20.816;2023-04-06T04:19:14;13.65;;;4.90;;
69260;SDS011;56378;52.404;20.816;2023-04-06T04:21:43;12.35;;;4.63;;
69260;SDS011;56378;52.404;20.816;2023-04-06T04:24:10;12.70;;;4.85;;
69260;SDS011;56378;52.404;20.816;2023-04-06T04:26:37;14.98;;;5.30;;
69260;SDS011;56378;52.404;20.816;2023-04-06T04:29:03;13.43;;;4.82;;
69260;SDS011;56378;52.404;20.816;2023-04-06T04:31:28;14.80;;;5.20;;
69260;SDS011;56378;52.404;20.816;2023-04-06T04:33:54;11.80;;;4.90;;
69260;SDS011;56378;52.404;20.816;2023-04-06T04:36:20;11.85;;;4.85;;
69260;SDS011;56378;52.404;20.816;2023-04-06T04:38:46;12.47;;;5.30;;
69260;SDS011;56378;52.404;20.816;2023-04-06T04:41:12;12.80;;;5.07;;
69260;SDS011;56378;52.404;20.816;2023-04-06T04:43:37;14.00;;;5.17;;
69260;SDS011;56378;52.404;20.816;2023-04-06T04:46:04;13.85;;;5.20;;
69260;SDS011;56378;52.404;20.816;2023-04-06T04:48:29;13.32;;;5.07;;
69260;SDS011;56378;52.404;20.816;2023-04-06T04:50:55;12.57;;;4.50;;
69260;SDS011;56378;52.404;20.816;2023-04-06T04:53:21;13.32;;;4.80;;
69260;SDS011;56378;52.404;20.816;2023-04-06T04:55:47;14.53;;;4.80;;
69260;SDS011;56378;52.404;20.816;2023-04-06T04:58:12;13.77;;;4.82;;
69260;SDS011;56378;52.404;20.816;2023-04-06T05:00:41;11.38;;;4.50;;
69260;SDS011;56378;52.404;20.816;2023-04-06T05:03:07;11.57;;;5.13;;
69260;SDS011;56378;52.404;20.816;2023-04-06T05:05:34;14.02;;;4.72;;
69260;SDS011;56378;52.404;20.816;2023-04-06T05:08:00;13.70;;;4.78;;
69260;SDS011;56378;52.404;20.816;2023-04-06T05:10:26;11.77;;;4.57;;
69260;SDS011;56378;52.404;20.816;2023-04-06T05:12:52;12.98;;;5.00;;
69260;SDS011;56378;52.404;20.816;2023-04-06T05:15:18;11.43;;;4.47;;
69260;SDS011;56378;52.404;20.816;2023-04-06T05:17:44;12.48;;;4.78;;
69260;SDS011;56378;52.404;20.816;2023-04-06T05:20:10;14.07;;;4.90;;
69260;SDS011;56378;52.404;20.816;2023-04-06T05:22:36;10.90;;;4.63;;
69260;SDS011;56378;52.404;20.816;2023-04-06T05:25:02;10.90;;;4.45;;
69260;SDS011;56378;52.404;20.816;2023-04-06T05:27:28;10.75;;;3.97;;
69260;SDS011;56378;52.404;20.816;2023-04-06T05:29:55;10.15;;;4.20;;
69260;SDS011;56378;52.404;20.816;2023-04-06T05:32:21;9.97;;;3.47;;
69260;SDS011;56378;52.404;20.816;2023-04-06T05:34:48;11.32;;;4.15;;
69260;SDS011;56378;52.404;20.816;2023-04-06T05:37:14;13.77;;;3.80;;
69260;SDS011;56378;52.404;20.816;2023-04-06T05:39:41;10.52;;;4.10;;
69260;SDS011;56378;52.404;20.816;2023-04-06T05:42:07;10.77;;;3.85;;
69260;SDS011;56378;52.404;20.816;2023-04-06T05:44:32;9.98;;;4.00;;
69260;SDS011;56378;52.404;20.816;2023-04-06T05:46:58;10.60;;;4.37;;
69260;SDS011;56378;52.404;20.816;2023-04-06T05:49:24;10.32;;;3.78;;
69260;SDS011;56378;52.404;20.816;2023-04-06T05:51:50;9.93;;;3.77;;
69260;SDS011;56378;52.404;20.816;2023-04-06T05:54:15;10.40;;;3.90;;
69260;SDS011;56378;52.404;20.816;2023-04-06T05:56:41;11.13;;;3.70;;
69260;SDS011;56378;52.404;20.816;2023-04-06T05:59:07;12.05;;;3.80;;
69260;SDS011;56378;52.404;20.816;2023-04-06T06:01:32;9.43;;;3.80;;
69260;SDS011;56378;52.404;20.816;2023-04-06T06:04:02;10.07;;;3.60;;
69260;SDS011;56378;52.404;20.816;2023-04-06T06:06:28;9.20;;;3.67;;
69260;SDS011;56378;52.404;20.816;2023-04-06T06:08:57;9.50;;;3.70;;
69260;SDS011;56378;52.404;20.816;2023-04-06T06:11:27;10.55;;;3.50;;
69260;SDS011;56378;52.404;20.816;2023-04-06T06:13:53;10.80;;;3.65;;
69260;SDS011;56378;52.404;20.816;2023-04-06T06:16:19;9.35;;;3.10;;
69260;SDS011;56378;52.404;20.816;2023-04-06T06:18:45;9.90;;;3.40;;
69260;SDS011;56378;52.404;20.816;2023-04-06T06:21:11;9.35;;;3.30;;
69260;SDS011;56378;52.404;20.816;2023-04-06T06:23:37;11.32;;;3.35;;
69260;SDS011;56378;52.404;20.816;2023-04-06T06:26:03;8.50;;;3.00;;
69260;SDS011;56378;52.404;20.816;2023-04-06T06:28:29;9.60;;;3.13;;
69260;SDS011;56378;52.404;20.816;2023-04-06T06:30:55;6.13;;;2.75;;
69260;SDS011;56378;52.404;20.816;2023-04-06T06:33:21;6.07;;;2.40;;
69260;SDS011;56378;52.404;20.816;2023-04-06T06:35:47;7.33;;;2.60;;
69260;SDS011;56378;52.404;20.816;2023-04-06T06:38:13;5.45;;;2.22;;
69260;SDS011;56378;52.404;20.816;2023-04-06T06:40:39;5.63;;;1.83;;
69260;SDS011;56378;52.404;20.816;2023-04-06T06:43:05;6.10;;;2.42;;
69260;SDS011;56378;52.404;20.816;2023-04-06T06:45:31;6.57;;;2.40;;
69260;SDS011;56378;52.404;20.816;2023-04-06T06:47:56;8.47;;;2.53;;
69260;SDS011;56378;52.404;20.816;2023-04-06T06:50:22;6.05;;;1.92;;
69260;SDS011;56378;52.404;20.816;2023-04-06T06:52:48;5.30;;;1.87;;
69260;SDS011;56378;52.404;20.816;2023-04-06T06:55:14;5.28;;;1.80;;
69260;SDS011;56378;52.404;20.816;2023-04-06T06:57:40;4.57;;;1.90;;
69260;SDS011;56378;52.404;20.816;2023-04-06T07:00:07;5.28;;;1.95;;
69260;SDS011;56378;52.404;20.816;2023-04-06T07:02:34;4.95;;;2.08;;
69260;SDS011;56378;52.404;20.816;2023-04-06T07:05:01;5.30;;;1.80;;
69260;SDS011;56378;52.404;20.816;2023-04-06T07:07:27;4.95;;;2.00;;
69260;SDS011;56378;52.404;20.816;2023-04-06T07:09:56;5.20;;;2.03;;
69260;SDS011;56378;52.404;20.816;2023-04-06T07:12:22;4.43;;;2.00;;
69260;SDS011;56378;52.404;20.816;2023-04-06T07:14:47;7.17;;;2.10;;
69260;SDS011;56378;52.404;20.816;2023-04-06T07:17:13;5.78;;;2.15;;
69260;SDS011;56378;52.404;20.816;2023-04-06T07:19:39;5.03;;;2.15;;
69260;SDS011;56378;52.404;20.816;2023-04-06T07:22:05;7.77;;;2.13;;
69260;SDS011;56378;52.404;20.816;2023-04-06T07:24:31;5.72;;;2.10;;
69260;SDS011;56378;52.404;20.816;2023-04-06T07:26:58;7.60;;;1.92;;
69260;SDS011;56378;52.404;20.816;2023-04-06T07:29:25;6.13;;;2.10;;
69260;SDS011;56378;52.404;20.816;2023-04-06T07:31:51;5.25;;;2.05;;
69260;SDS011;56378;52.404;20.816;2023-04-06T07:34:17;6.32;;;2.13;;
69260;SDS011;56378;52.404;20.816;2023-04-06T07:36:42;6.87;;;2.10;;
69260;SDS011;56378;52.404;20.816;2023-04-06T07:39:08;6.13;;;2.10;;
69260;SDS011;56378;52.404;20.816;2023-04-06T07:41:34;6.50;;;2.23;;
69260;SDS011;56378;52.404;20.816;2023-04-06T07:44:00;4.25;;;1.95;;
69260;SDS011;56378;52.404;20.816;2023-04-06T07:46:25;4.83;;;1.90;;
69260;SDS011;56378;52.404;20.816;2023-04-06T07:48:51;6.00;;;2.08;;
69260;SDS011;56378;52.404;20.816;2023-04-06T07:51:17;6.23;;;2.10;;
69260;SDS011;56378;52.404;20.816;2023-04-06T07:53:44;7.10;;;2.00;;
69260;SDS011;56378;52.404;20.816;2023-04-06T07:56:09;5.43;;;2.00;;
69260;SDS011;56378;52.404;20.816;2023-04-06T07:58:37;6.90;;;2.17;;
69260;SDS011;56378;52.404;20.816;2023-04-06T08:01:02;5.32;;;2.15;;
69260;SDS011;56378;52.404;20.816;2023-04-06T08:03:28;6.27;;;2.30;;
69260;SDS011;56378;52.404;20.816;2023-04-06T08:05:54;5.88;;;2.00;;
69260;SDS011;56378;52.404;20.816;2023-04-06T08:08:20;4.90;;;1.95;;
69260;SDS011;56378;52.404;20.816;2023-04-06T08:10:47;5.63;;;2.50;;
69260;SDS011;56378;52.404;20.816;2023-04-06T08:13:13;5.80;;;2.13;;
69260;SDS011;56378;52.404;20.816;2023-04-06T08:15:39;8.18;;;2.67;;
69260;SDS011;56378;52.404;20.816;2023-04-06T08:18:05;6.37;;;2.00;;
69260;SDS011;56378;52.404;20.816;2023-04-06T08:20:31;6.45;;;2.13;;
69260;SDS011;56378;52.404;20.816;2023-04-06T08:22:56;6.07;;;2.00;;
69260;SDS011;56378;52.404;20.816;2023-04-06T08:25:22;4.57;;;2.10;;
69260;SDS011;56378;52.404;20.816;2023-04-06T08:27:48;6.05;;;2.00;;
69260;SDS011;56378;52.404;20.816;2023-04-06T08:30:14;6.70;;;2.50;;
69260;SDS011;56378;52.404;20.816;2023-04-06T08:32:40;5.07;;;1.70;;
69260;SDS011;56378;52.404;20.816;2023-04-06T08:35:07;8.25;;;3.03;;
69260;SDS011;56378;52.404;20.816;2023-04-06T08:37:33;5.03;;;2.10;;
69260;SDS011;56378;52.404;20.816;2023-04-06T08:39:59;5.45;;;2.28;;
69260;SDS011;56378;52.404;20.816;2023-04-06T08:42:25;6.68;;;2.13;;
69260;SDS011;56378;52.404;20.816;2023-04-06T08:44:53;9.43;;;2.30;;
69260;SDS011;56378;52.404;20.816;2023-04-06T08:47:20;7.93;;;2.63;;
69260;SDS011;56378;52.404;20.816;2023-04-06T08:49:46;6.15;;;2.25;;
69260;SDS011;56378;52.404;20.816;2023-04-06T08:52:12;5.13;;;2.10;;
69260;SDS011;56378;52.404;20.816;2023-04-06T08:54:40;4.75;;;1.90;;
69260;SDS011;56378;52.404;20.816;2023-04-06T08:57:06;4.63;;;2.20;;
69260;SDS011;56378;52.404;20.816;2023-04-06T08:59:33;5.97;;;2.23;;
69260;SDS011;56378;52.404;20.816;2023-04-06T09:01:59;7.45;;;2.20;;
69260;SDS011;56378;52.404;20.816;2023-04-06T09:04:29;7.70;;;2.67;;
69260;SDS011;56378;52.404;20.816;2023-04-06T09:06:55;6.82;;;2.55;;
69260;SDS011;56378;52.404;20.816;2023-04-06T09:09:20;6.90;;;2.27;;
69260;SDS011;56378;52.404;20.816;2023-04-06T09:11:48;5.05;;;2.30;;
69260;SDS011;56378;52.404;20.816;2023-04-06T09:14:15;4.67;;;2.10;;
69260;SDS011;56378;52.404;20.816;2023-04-06T09:16:44;7.72;;;2.60;;
69260;SDS011;56378;52.404;20.816;2023-04-06T09:19:11;5.88;;;2.40;;
69260;SDS011;56378;52.404;20.816;2023-04-06T09:21:37;6.50;;;2.30;;
69260;SDS011;56378;52.404;20.816;2023-04-06T09:24:06;6.72;;;2.55;;
69260;SDS011;56378;52.404;20.816;2023-04-06T09:26:32;6.67;;;2.30;;
69260;SDS011;56378;52.404;20.816;2023-04-06T09:29:09;6.10;;;2.58;;
69260;SDS011;56378;52.404;20.816;2023-04-06T09:31:35;5.60;;;2.22;;
69260;SDS011;56378;52.404;20.816;2023-04-06T09:34:01;6.32;;;2.05;;
69260;SDS011;56378;52.404;20.816;2023-04-06T09:36:34;4.95;;;1.90;;
69260;SDS011;56378;52.404;20.816;2023-04-06T09:39:04;5.03;;;2.03;;
69260;SDS011;56378;52.404;20.816;2023-04-06T09:41:31;6.03;;;2.10;;
69260;SDS011;56378;52.404;20.816;2023-04-06T09:44:09;5.20;;;2.05;;
69260;SDS011;56378;52.404;20.816;2023-04-06T09:46:36;5.75;;;2.15;;
69260;SDS011;56378;52.404;20.816;2023-04-06T09:49:04;4.70;;;2.05;;
69260;SDS011;56378;52.404;20.816;2023-04-06T09:51:37;7.80;;;2.65;;
69260;SDS011;56378;52.404;20.816;2023-04-06T09:54:04;6.53;;;2.15;;
69260;SDS011;56378;52.404;20.816;2023-04-06T09:56:31;6.07;;;2.03;;
69260;SDS011;56378;52.404;20.816;2023-04-06T09:59:08;4.65;;;2.38;;
69260;SDS011;56378;52.404;20.816;2023-04-06T10:01:36;5.05;;;2.10;;
69260;SDS011;56378;52.404;20.816;2023-04-06T10:04:26;7.30;;;2.35;;
69260;SDS011;56378;52.404;20.816;2023-04-06T10:07:02;6.65;;;2.40;;
69260;SDS011;56378;52.404;20.816;2023-04-06T10:09:28;6.53;;;2.50;;
69260;SDS011;56378;52.404;20.816;2023-04-06T10:12:02;6.20;;;2.47;;
69260;SDS011;56378;52.404;20.816;2023-04-06T10:14:29;5.63;;;2.30;;
69260;SDS011;56378;52.404;20.816;2023-04-06T10:16:58;7.72;;;2.50;;
69260;SDS011;56378;52.404;20.816;2023-04-06T10:19:26;5.47;;;2.40;;
69260;SDS011;56378;52.404;20.816;2023-04-06T10:22:05;6.95;;;2.72;;
69260;SDS011;56378;52.404;20.816;2023-04-06T10:24:35;8.45;;;2.83;;
69260;SDS011;56378;52.404;20.816;2023-04-06T10:27:01;7.15;;;2.83;;
69260;SDS011;56378;52.404;20.816;2023-04-06T10:29:28;6.85;;;2.35;;
69260;SDS011;56378;52.404;20.816;2023-04-06T10:32:15;7.53;;;2.63;;
69260;SDS011;56378;52.404;20.816;2023-04-06T10:34:40;6.50;;;3.00;;
69260;SDS011;56378;52.404;20.816;2023-04-06T10:37:16;6.65;;;2.97;;
69260;SDS011;56378;52.404;20.816;2023-04-06T10:39:53;8.07;;;2.70;;
69260;SDS011;56378;52.404;20.816;2023-04-06T10:42:23;6.10;;;2.53;;
69260;SDS011;56378;52.404;20.816;2023-04-06T10:44:50;7.80;;;2.85;;
69260;SDS011;56378;52.404;20.816;2023-04-06T10:47:16;7.47;;;2.97;;
69260;SDS011;56378;52.404;20.816;2023-04-06T10:49:43;7.38;;;3.15;;
69260;SDS011;56378;52.404;20.816;2023-04-06T10:52:09;7.40;;;3.42;;
69260;SDS011;56378;52.404;20.816;2023-04-06T10:54:34;7.28;;;3.50;;
69260;SDS011;56378;52.404;20.816;2023-04-06T10:57:03;8.63;;;3.90;;
69260;SDS011;56378;52.404;20.816;2023-04-06T10:59:29;10.15;;;4.70;;
69260;SDS011;56378;52.404;20.816;2023-04-06T11:01:54;12.00;;;4.57;;
69260;SDS011;56378;52.404;20.816;2023-04-06T11:04:20;12.98;;;5.18;;
69260;SDS011;56378;52.404;20.816;2023-04-06T11:06:47;8.82;;;3.90;;
69260;SDS011;56378;52.404;20.816;2023-04-06T11:09:26;11.20;;;4.47;;
69260;SDS011;56378;52.404;20.816;2023-04-06T11:11:53;10.02;;;4.78;;
69260;SDS011;56378;52.404;20.816;2023-04-06T11:14:20;10.73;;;4.53;;
69260;SDS011;56378;52.404;20.816;2023-04-06T11:16:46;9.93;;;4.40;;
69260;SDS011;56378;52.404;20.816;2023-04-06T11:19:14;9.68;;;4.35;;
69260;SDS011;56378;52.404;20.816;2023-04-06T11:21:41;10.07;;;4.22;;
69260;SDS011;56378;52.404;20.816;2023-04-06T11:26:49;10.35;;;4.53;;
69260;SDS011;56378;52.404;20.816;2023-04-06T11:29:19;8.73;;;4.35;;
69260;SDS011;56378;52.404;20.816;2023-04-06T11:31:52;10.20;;;5.10;;
69260;SDS011;56378;52.404;20.816;2023-04-06T11:34:22;10.48;;;4.95;;
69260;SDS011;56378;52.404;20.816;2023-04-06T11:36:53;10.75;;;5.05;;
69260;SDS011;56378;52.404;20.816;2023-04-06T11:39:22;10.20;;;4.30;;
69260;SDS011;56378;52.404;20.816;2023-04-06T11:41:50;10.07;;;4.15;;
69260;SDS011;56378;52.404;20.816;2023-04-06T11:46:58;9.73;;;4.00;;
69260;SDS011;56378;52.404;20.816;2023-04-06T11:49:28;10.05;;;4.10;;
69260;SDS011;56378;52.404;20.816;2023-04-06T11:51:55;9.38;;;3.90;;
69260;SDS011;56378;52.404;20.816;2023-04-06T11:54:35;9.07;;;4.05;;
69260;SDS011;56378;52.404;20.816;2023-04-06T11:57:05;8.50;;;3.75;;
69260;SDS011;56378;52.404;20.816;2023-04-06T11:59:33;8.68;;;3.92;;
69260;SDS011;56378;52.404;20.816;2023-04-06T12:02:01;5.60;;;3.05;;
69260;SDS011;56378;52.404;20.816;2023-04-06T12:04:27;8.00;;;3.63;;
69260;SDS011;56378;52.404;20.816;2023-04-06T12:06:53;7.85;;;3.45;;
69260;SDS011;56378;52.404;20.816;2023-04-06T12:09:19;7.55;;;3.50;;
69260;SDS011;56378;52.404;20.816;2023-04-06T12:11:46;11.93;;;3.65;;
69260;SDS011;56378;52.404;20.816;2023-04-06T12:14:11;9.82;;;4.22;;
69260;SDS011;56378;52.404;20.816;2023-04-06T12:16:38;10.57;;;3.60;;
69260;SDS011;56378;52.404;20.816;2023-04-06T12:19:04;8.82;;;3.40;;
69260;SDS011;56378;52.404;20.816;2023-04-06T12:21:30;7.15;;;3.00;;
69260;SDS011;56378;52.404;20.816;2023-04-06T12:23:57;7.90;;;3.40;;
69260;SDS011;56378;52.404;20.816;2023-04-06T12:26:23;8.77;;;3.40;;
69260;SDS011;56378;52.404;20.816;2023-04-06T12:28:49;7.55;;;3.25;;
69260;SDS011;56378;52.404;20.816;2023-04-06T12:31:16;8.43;;;3.72;;
69260;SDS011;56378;52.404;20.816;2023-04-06T12:33:42;8.88;;;4.07;;
69260;SDS011;56378;52.404;20.816;2023-04-06T12:36:13;9.70;;;3.53;;
69260;SDS011;56378;52.404;20.816;2023-04-06T12:38:40;9.03;;;3.60;;
69260;SDS011;56378;52.404;20.816;2023-04-06T12:41:06;9.50;;;3.83;;
69260;SDS011;56378;52.404;20.816;2023-04-06T12:43:32;7.55;;;3.70;;
69260;SDS011;56378;52.404;20.816;2023-04-06T12:45:58;8.95;;;3.17;;
69260;SDS011;56378;52.404;20.816;2023-04-06T12:48:27;7.93;;;3.00;;
69260;SDS011;56378;52.404;20.816;2023-04-06T12:50:59;6.70;;;2.90;;
69260;SDS011;56378;52.404;20.816;2023-04-06T12:53:26;8.88;;;3.08;;
69260;SDS011;56378;52.404;20.816;2023-04-06T12:55:53;7.33;;;3.00;;
69260;SDS011;56378;52.404;20.816;2023-04-06T12:58:19;8.55;;;2.90;;
69260;SDS011;56378;52.404;20.816;2023-04-06T13:00:47;7.70;;;3.20;;
69260;SDS011;56378;52.404;20.816;2023-04-06T13:03:13;6.30;;;2.63;;
69260;SDS011;56378;52.404;20.816;2023-04-06T13:05:49;7.07;;;3.00;;
69260;SDS011;56378;52.404;20.816;2023-04-06T13:08:15;6.13;;;2.67;;
69260;SDS011;56378;52.404;20.816;2023-04-06T13:10:52;6.35;;;2.40;;
69260;SDS011;56378;52.404;20.816;2023-04-06T13:13:21;6.18;;;2.55;;
69260;SDS011;56378;52.404;20.816;2023-04-06T13:15:49;5.82;;;2.58;;
69260;SDS011;56378;52.404;20.816;2023-04-06T13:18:16;5.88;;;2.63;;
69260;SDS011;56378;52.404;20.816;2023-04-06T13:20:41;7.53;;;3.10;;
69260;SDS011;56378;52.404;20.816;2023-04-06T13:23:07;6.83;;;2.73;;
69260;SDS011;56378;52.404;20.816;2023-04-06T13:25:33;5.97;;;2.60;;
69260;SDS011;56378;52.404;20.816;2023-04-06T13:27:59;6.10;;;2.53;;
69260;SDS011;56378;52.404;20.816;2023-04-06T13:30:25;7.18;;;2.58;;
69260;SDS011;56378;52.404;20.816;2023-04-06T13:32:51;6.63;;;2.53;;
69260;SDS011;56378;52.404;20.816;2023-04-06T13:35:17;7.30;;;2.88;;
69260;SDS011;56378;52.404;20.816;2023-04-06T13:37:42;5.77;;;2.70;;
69260;SDS011;56378;52.404;20.816;2023-04-06T13:40:09;7.78;;;2.90;;
69260;SDS011;56378;52.404;20.816;2023-04-06T13:42:35;7.50;;;2.72;;
69260;SDS011;56378;52.404;20.816;2023-04-06T13:45:01;6.50;;;2.83;;
69260;SDS011;56378;52.404;20.816;2023-04-06T13:47:27;6.40;;;2.60;;
69260;SDS011;56378;52.404;20.816;2023-04-06T13:49:53;7.35;;;2.63;;
69260;SDS011;56378;52.404;20.816;2023-04-06T13:52:20;6.90;;;3.03;;
69260;SDS011;56378;52.404;20.816;2023-04-06T13:54:46;7.13;;;2.67;;
69260;SDS011;56378;52.404;20.816;2023-04-06T13:57:12;9.93;;;2.75;;
69260;SDS011;56378;52.404;20.816;2023-04-06T13:59:38;7.28;;;2.60;;
69260;SDS011;56378;52.404;20.816;2023-04-06T14:02:07;5.80;;;2.40;;
69260;SDS011;56378;52.404;20.816;2023-04-06T14:04:33;5.87;;;2.43;;
69260;SDS011;56378;52.404;20.816;2023-04-06T14:07:00;6.90;;;2.50;;
69260;SDS011;56378;52.404;20.816;2023-04-06T14:09:26;6.55;;;2.60;;
69260;SDS011;56378;52.404;20.816;2023-04-06T14:11:52;9.40;;;2.80;;
69260;SDS011;56378;52.404;20.816;2023-04-06T14:14:18;6.43;;;2.60;;
69260;SDS011;56378;52.404;20.816;2023-04-06T14:16:44;8.18;;;2.75;;
69260;SDS011;56378;52.404;20.816;2023-04-06T14:19:11;7.20;;;2.80;;
69260;SDS011;56378;52.404;20.816;2023-04-06T14:21:43;9.00;;;2.60;;
69260;SDS011;56378;52.404;20.816;2023-04-06T14:27:35;7.00;;;2.93;;
69260;SDS011;56378;52.404;20.816;2023-04-06T14:30:01;7.88;;;2.47;;
69260;SDS011;56378;52.404;20.816;2023-04-06T14:32:27;6.13;;;2.63;;
69260;SDS011;56378;52.404;20.816;2023-04-06T14:34:52;6.35;;;2.60;;